createdAt,value
2019-03-03T00:00:00.333Z,86.82
2019-03-03T00:01:08.358Z,85.77
2019-03-03T00:02:16.424Z,84.91
2019-03-03T00:03:24.478Z,84.34
2019-03-03T00:04:32.540Z,84.16
2019-03-03T00:05:40.612Z,89.28
2019-03-03T00:06:48.665Z,86.05
2019-03-03T00:07:56.720Z,84.91
2019-03-03T00:09:04.792Z,83.87
2019-03-03T00:10:12.838Z,85.96
2019-03-03T00:11:20.939Z,85.30
2019-03-03T00:12:28.969Z,84.91
2019-03-03T00:13:37.032Z,85.01
2019-03-03T00:14:45.092Z,82.73
2019-03-03T00:15:53.196Z,85.68
2019-03-03T00:17:01.202Z,85.01
2019-03-03T00:18:09.265Z,83.39
2019-03-03T00:19:17.299Z,83.78
2019-03-03T00:20:25.387Z,81.97
2019-03-03T00:21:33.462Z,80.55
2019-03-03T00:22:41.507Z,80.93
2019-03-03T00:23:49.555Z,81.78
2019-03-03T00:24:57.610Z,90.61
2019-03-03T00:26:05.678Z,82.35
2019-03-03T00:27:13.765Z,81.49
2019-03-03T00:28:21.822Z,81.68
2019-03-03T00:29:29.851Z,85.77
2019-03-03T00:30:37.912Z,81.40
2019-03-03T00:31:45.982Z,81.40
2019-03-03T00:32:54.033Z,81.49
2019-03-03T00:34:02.100Z,84.06
2019-03-03T00:35:10.158Z,78.64
2019-03-03T00:36:18.218Z,79.12
2019-03-03T00:37:26.286Z,84.34
2019-03-03T00:38:34.345Z,82.26
2019-03-03T00:39:42.409Z,80.55
2019-03-03T00:40:50.465Z,82.07
2019-03-03T00:41:58.516Z,78.17
2019-03-03T00:43:06.598Z,78.83
2019-03-03T00:44:14.628Z,82.92
2019-03-03T00:45:22.701Z,75.70
2019-03-03T00:46:30.794Z,76.65
2019-03-03T00:47:38.818Z,76.84
2019-03-03T00:48:46.938Z,76.46
2019-03-03T00:49:55.098Z,75.70
2019-03-03T00:51:03.008Z,73.71
2019-03-03T00:52:11.062Z,81.21
2019-03-03T00:53:19.123Z,78.27
2019-03-03T00:54:27.176Z,76.75
2019-03-03T00:55:35.238Z,75.60
2019-03-03T00:56:43.282Z,77.41
2019-03-03T00:57:51.350Z,74.18
2019-03-03T00:58:59.413Z,75.32
2019-03-03T01:00:07.445Z,73.90
2019-03-03T01:01:15.528Z,75.60
2019-03-03T01:02:23.839Z,77.70
2019-03-03T01:03:31.649Z,76.46
2019-03-03T01:04:39.953Z,77.12
2019-03-03T01:05:47.757Z,74.85
2019-03-03T01:06:55.841Z,74.27
2019-03-03T01:08:03.896Z,75.60
2019-03-03T01:09:11.967Z,73.14
2019-03-03T01:10:20.012Z,72.47
2019-03-03T01:11:28.044Z,71.23
2019-03-03T01:12:36.131Z,78.55
2019-03-03T01:13:44.206Z,75.42
2019-03-03T01:14:52.250Z,74.47
2019-03-03T01:16:00.319Z,73.71
2019-03-03T01:17:08.351Z,80.64
2019-03-03T01:18:16.426Z,79.79
2019-03-03T01:19:24.489Z,75.99
2019-03-03T01:20:32.548Z,70.86
2019-03-03T01:21:40.626Z,75.70
2019-03-03T01:22:48.676Z,73.42
2019-03-03T01:23:56.758Z,73.61
2019-03-03T01:25:04.791Z,75.23
2019-03-03T01:26:12.857Z,73.23
2019-03-03T01:27:20.908Z,71.33
2019-03-03T01:28:28.989Z,69.81
2019-03-03T01:29:37.025Z,76.27
2019-03-03T01:30:45.090Z,73.23
2019-03-03T01:31:53.160Z,71.81
2019-03-03T01:33:01.202Z,73.80
2019-03-03T01:34:09.277Z,74.47
2019-03-03T01:35:17.331Z,73.80
2019-03-03T01:36:25.400Z,71.81
2019-03-03T01:37:33.452Z,71.71
2019-03-03T01:38:41.525Z,72.66
2019-03-03T01:39:49.580Z,73.99
2019-03-03T01:40:57.626Z,71.04
2019-03-03T01:42:05.700Z,72.09
2019-03-03T01:43:13.758Z,69.91
2019-03-03T01:44:21.817Z,70.19
2019-03-03T01:45:29.884Z,70.35
2019-03-03T01:46:37.922Z,68.64
2019-03-03T01:47:46.000Z,71.39
2019-03-03T01:48:54.067Z,66.74
2019-03-03T01:50:02.131Z,67.40
2019-03-03T01:51:10.182Z,69.59
2019-03-03T01:52:18.224Z,69.21
2019-03-03T01:53:26.286Z,69.49
2019-03-03T01:54:34.367Z,69.59
2019-03-03T01:55:42.408Z,71.30
2019-03-03T01:56:50.475Z,70.15
2019-03-03T01:57:58.531Z,68.73
2019-03-03T01:59:06.603Z,66.99
2019-03-03T02:00:14.650Z,64.24
2019-03-03T02:01:22.703Z,64.90
2019-03-03T02:02:30.749Z,64.33
2019-03-03T02:03:38.854Z,65.28
2019-03-03T02:04:46.890Z,64.52
2019-03-03T02:05:54.940Z,64.52
2019-03-03T02:07:03.153Z,61.96
2019-03-03T02:08:11.242Z,56.46
2019-03-03T02:09:19.123Z,54.56
2019-03-03T02:10:27.187Z,52.28
2019-03-03T02:11:35.260Z,51.90
2019-03-03T02:12:43.317Z,50.38
2019-03-03T02:13:51.368Z,49.72
2019-03-03T02:14:59.417Z,50.76
2019-03-03T02:16:07.446Z,49.05
2019-03-03T02:17:15.554Z,48.01
2019-03-03T02:18:23.613Z,47.82
2019-03-03T02:19:31.705Z,48.01
2019-03-03T02:20:39.727Z,48.96
2019-03-03T02:21:47.751Z,49.05
2019-03-03T02:22:55.838Z,49.72
2019-03-03T02:24:03.896Z,50.12
2019-03-03T02:25:11.970Z,49.53
2019-03-03T02:26:20.017Z,50.12
2019-03-03T02:27:28.060Z,52.59
2019-03-03T02:28:36.151Z,52.76
2019-03-03T02:29:44.193Z,51.17
2019-03-03T02:30:52.260Z,55.73
2019-03-03T02:32:00.304Z,54.37
2019-03-03T02:33:08.365Z,57.53
2019-03-03T02:34:16.443Z,56.01
2019-03-03T02:35:24.496Z,55.16
2019-03-03T02:36:32.546Z,55.44
2019-03-03T02:37:40.604Z,55.44
2019-03-03T02:38:48.673Z,55.54
2019-03-03T02:39:56.842Z,57.62
2019-03-03T02:41:04.782Z,56.20
2019-03-03T02:42:12.852Z,57.06
2019-03-03T02:43:20.906Z,56.20
2019-03-03T02:44:28.985Z,58.00
2019-03-03T02:45:37.038Z,56.10
2019-03-03T02:46:45.085Z,55.82
2019-03-03T02:47:53.139Z,55.91
2019-03-03T02:49:01.224Z,57.15
2019-03-03T02:50:09.261Z,55.25
2019-03-03T02:51:17.330Z,55.73
2019-03-03T02:52:25.385Z,55.82
2019-03-03T02:53:33.460Z,55.91
2019-03-03T02:54:41.497Z,55.73
2019-03-03T02:55:49.545Z,55.91
2019-03-03T02:56:57.618Z,57.62
2019-03-03T02:58:05.681Z,57.81
2019-03-03T02:59:13.749Z,57.15
2019-03-03T03:00:21.806Z,57.62
2019-03-03T03:01:29.861Z,57.24
2019-03-03T03:02:37.906Z,58.95
2019-03-03T03:03:45.978Z,59.43
2019-03-03T03:04:54.055Z,58.00
2019-03-03T03:06:02.115Z,58.20
2019-03-03T03:07:10.152Z,58.67
2019-03-03T03:08:18.205Z,58.76
2019-03-03T03:09:26.281Z,60.85
2019-03-03T03:10:34.338Z,60.19
2019-03-03T03:11:42.395Z,59.71
2019-03-03T03:12:50.444Z,60.57
2019-03-03T03:13:58.519Z,61.11
2019-03-03T03:15:06.577Z,62.72
2019-03-03T03:16:14.652Z,62.53
2019-03-03T03:17:22.698Z,64.05
2019-03-03T03:18:30.751Z,64.24
2019-03-03T03:19:38.825Z,63.76
2019-03-03T03:20:46.868Z,61.68
2019-03-03T03:21:54.939Z,60.92
2019-03-03T03:23:02.982Z,62.15
2019-03-03T03:24:11.063Z,61.58
2019-03-03T03:25:19.158Z,61.96
2019-03-03T03:26:27.147Z,62.91
2019-03-03T03:27:35.247Z,63.20
2019-03-03T03:28:43.288Z,63.45
2019-03-03T03:29:51.347Z,63.17
2019-03-03T03:30:59.414Z,66.29
2019-03-03T03:32:07.439Z,66.77
2019-03-03T03:33:15.525Z,67.14
2019-03-03T03:34:23.589Z,67.24
2019-03-03T03:35:31.642Z,66.96
2019-03-03T03:36:39.702Z,63.07
2019-03-03T03:37:47.731Z,62.50
2019-03-03T03:38:55.825Z,62.59
2019-03-03T03:40:03.886Z,60.86
2019-03-03T03:41:11.943Z,59.25
2019-03-03T03:42:19.999Z,55.36
2019-03-03T03:43:28.047Z,53.94
2019-03-03T03:44:36.125Z,53.65
2019-03-03T03:45:44.197Z,54.41
2019-03-03T03:46:52.241Z,53.65
2019-03-03T03:48:00.281Z,53.27
2019-03-03T03:49:08.346Z,53.27
2019-03-03T03:50:16.409Z,53.75
2019-03-03T03:51:24.454Z,51.66
2019-03-03T03:52:32.529Z,51.76
2019-03-03T03:53:40.570Z,50.15
2019-03-03T03:54:48.646Z,51.37
2019-03-03T03:55:56.703Z,51.47
2019-03-03T03:57:04.770Z,51.76
2019-03-03T03:58:12.818Z,50.15
2019-03-03T03:59:20.896Z,47.96
2019-03-03T04:00:28.934Z,47.77
2019-03-03T04:01:36.989Z,44.27
2019-03-03T04:02:45.061Z,44.27
2019-03-03T04:03:53.106Z,43.79
2019-03-03T04:05:01.170Z,40.57
2019-03-03T04:06:09.221Z,39.34
2019-03-03T04:07:17.264Z,34.31
2019-03-03T04:08:25.346Z,33.65
2019-03-03T04:09:33.412Z,31.95
2019-03-03T04:10:41.473Z,30.52
2019-03-03T04:11:49.524Z,30.90
2019-03-03T04:12:57.555Z,29.76
2019-03-03T04:14:05.649Z,29.86
2019-03-03T04:15:13.701Z,30.05
2019-03-03T04:16:21.792Z,30.05
2019-03-03T04:17:29.816Z,31.47
2019-03-03T04:18:37.852Z,31.95
2019-03-03T04:19:45.945Z,32.98
2019-03-03T04:20:54.012Z,37.25
2019-03-03T04:22:02.045Z,37.63
2019-03-03T04:23:10.113Z,37.06
2019-03-03T04:24:18.148Z,38.20
2019-03-03T04:25:26.232Z,38.10
2019-03-03T04:26:34.293Z,38.48
2019-03-03T04:27:42.349Z,37.54
2019-03-03T04:28:50.397Z,38.48
2019-03-03T04:29:58.453Z,39.81
2019-03-03T04:31:06.505Z,39.90
2019-03-03T04:32:14.566Z,39.43
2019-03-03T04:33:22.661Z,39.43
2019-03-03T04:34:30.696Z,39.62
2019-03-03T04:35:38.761Z,40.38
2019-03-03T04:36:46.824Z,39.90
2019-03-03T04:37:54.927Z,40.09
2019-03-03T04:39:02.925Z,40.57
2019-03-03T04:40:10.971Z,40.76
2019-03-03T04:41:19.041Z,40.57
2019-03-03T04:42:27.089Z,42.37
2019-03-03T04:43:35.161Z,44.46
2019-03-03T04:44:43.219Z,45.31
2019-03-03T04:45:51.285Z,45.31
2019-03-03T04:46:59.346Z,44.93
2019-03-03T04:48:07.362Z,44.27
2019-03-03T04:49:15.462Z,44.55
2019-03-03T04:50:23.516Z,44.55
2019-03-03T04:51:31.571Z,43.51
2019-03-03T04:52:39.633Z,52.98
2019-03-03T04:53:47.690Z,54.13
2019-03-03T04:54:55.752Z,51.95
2019-03-03T04:56:03.825Z,51.47
2019-03-03T04:57:11.873Z,51.66
2019-03-03T04:58:19.914Z,50.99
2019-03-03T04:59:27.975Z,55.45
2019-03-03T05:00:36.035Z,53.65
2019-03-03T05:01:44.098Z,52.04
2019-03-03T05:02:52.174Z,53.18
2019-03-03T05:04:00.237Z,56.21
2019-03-03T05:05:08.286Z,53.18
2019-03-03T05:06:16.337Z,55.93
2019-03-03T05:07:24.396Z,55.48
2019-03-03T05:08:32.455Z,57.82
2019-03-03T05:09:40.516Z,57.73
2019-03-03T05:10:48.573Z,56.78
2019-03-03T05:11:56.626Z,56.49
2019-03-03T05:13:04.683Z,54.88
2019-03-03T05:14:12.741Z,57.64
2019-03-03T05:15:20.816Z,56.30
2019-03-03T05:16:28.873Z,56.30
2019-03-03T05:17:36.923Z,55.55
2019-03-03T05:18:44.979Z,53.46
2019-03-03T05:19:53.040Z,52.80
2019-03-03T05:21:01.143Z,56.30
2019-03-03T05:22:09.153Z,56.30
2019-03-03T05:23:17.190Z,56.02
2019-03-03T05:24:33.840Z,54.50
2019-03-03T05:25:33.342Z,56.40
2019-03-03T05:26:41.382Z,54.32
2019-03-03T05:27:49.443Z,55.83
2019-03-03T05:28:57.494Z,51.95
2019-03-03T05:30:05.563Z,52.89
2019-03-03T05:31:13.618Z,53.56
2019-03-03T05:32:21.674Z,53.18
2019-03-03T05:33:29.745Z,51.47
2019-03-03T05:34:37.769Z,50.05
2019-03-03T05:35:45.837Z,50.81
2019-03-03T05:36:53.919Z,55.64
2019-03-03T05:38:02.023Z,53.46
2019-03-03T05:39:10.044Z,54.60
2019-03-03T05:40:18.082Z,52.80
2019-03-03T05:41:26.148Z,51.18
2019-03-03T05:42:34.203Z,52.80
2019-03-03T05:43:42.261Z,51.18
2019-03-03T05:44:50.323Z,47.87
2019-03-03T05:45:58.371Z,47.11
2019-03-03T05:47:06.428Z,48.06
2019-03-03T05:48:14.487Z,49.48
2019-03-03T05:49:22.550Z,50.71
2019-03-03T05:50:30.600Z,49.38
2019-03-03T05:51:38.658Z,49.29
2019-03-03T05:52:46.725Z,49.76
2019-03-03T05:53:54.797Z,50.62
2019-03-03T05:55:02.842Z,49.57
2019-03-03T05:56:10.904Z,47.87
2019-03-03T05:57:18.944Z,47.58
2019-03-03T05:58:27.014Z,45.12
2019-03-03T05:59:35.065Z,45.40
2019-03-03T06:00:43.161Z,45.40
2019-03-03T06:01:51.199Z,46.83
2019-03-03T06:02:59.258Z,47.49
2019-03-03T06:04:07.327Z,49.38
2019-03-03T06:05:15.374Z,49.95
2019-03-03T06:06:23.425Z,55.55
2019-03-03T06:07:31.492Z,53.75
2019-03-03T06:08:39.549Z,51.18
2019-03-03T06:09:47.586Z,50.43
2019-03-03T06:10:55.653Z,50.05
2019-03-03T06:12:03.718Z,50.62
2019-03-03T06:13:11.783Z,49.38
2019-03-03T06:14:19.836Z,50.15
2019-03-03T06:15:27.862Z,49.17
2019-03-03T06:16:35.937Z,49.38
2019-03-03T06:17:44.017Z,46.54
2019-03-03T06:18:52.072Z,46.23
2019-03-03T06:20:00.133Z,47.39
2019-03-03T06:21:08.188Z,47.47
2019-03-03T06:22:16.255Z,46.99
2019-03-03T06:23:24.317Z,46.80
2019-03-03T06:24:32.351Z,45.19
2019-03-03T06:25:40.470Z,43.58
2019-03-03T06:26:48.471Z,43.58
2019-03-03T06:27:56.551Z,42.92
2019-03-03T06:29:04.585Z,41.88
2019-03-03T06:30:12.646Z,41.88
2019-03-03T06:31:20.715Z,42.44
2019-03-03T06:32:28.781Z,41.97
2019-03-03T06:33:36.825Z,40.93
2019-03-03T06:34:44.888Z,38.84
2019-03-03T06:35:52.936Z,38.84
2019-03-03T06:37:00.999Z,38.18
2019-03-03T06:38:09.094Z,38.18
2019-03-03T06:39:17.120Z,38.94
2019-03-03T06:40:25.186Z,37.52
2019-03-03T06:41:33.246Z,38.46
2019-03-03T06:42:41.497Z,40.00
2019-03-03T06:43:49.469Z,40.93
2019-03-03T06:44:57.379Z,42.37
2019-03-03T06:46:05.453Z,40.74
2019-03-03T06:47:13.539Z,41.14
2019-03-03T06:48:21.588Z,40.95
2019-03-03T06:49:30.030Z,41.33
2019-03-03T06:50:37.955Z,40.85
2019-03-03T06:51:45.757Z,42.37
2019-03-03T06:52:53.820Z,44.08
2019-03-03T06:54:02.247Z,44.74
2019-03-03T06:55:10.219Z,45.03
2019-03-03T06:56:18.039Z,46.83
2019-03-03T06:57:26.063Z,46.64
2019-03-03T06:58:34.105Z,49.60
2019-03-03T06:59:42.176Z,57.85
2019-03-03T07:00:50.248Z,55.57
2019-03-03T07:01:58.297Z,58.14
2019-03-03T07:03:06.347Z,57.76
2019-03-03T07:04:14.412Z,57.76
2019-03-03T07:05:22.459Z,58.23
2019-03-03T07:06:30.520Z,58.61
2019-03-03T07:07:38.573Z,59.84
2019-03-03T07:08:46.643Z,62.69
2019-03-03T07:09:54.736Z,62.97
2019-03-03T07:11:02.771Z,62.50
2019-03-03T07:12:10.821Z,63.64
2019-03-03T07:13:18.893Z,64.40
2019-03-03T07:14:26.931Z,65.91
2019-03-03T07:15:34.992Z,64.90
2019-03-03T07:16:43.063Z,67.27
2019-03-03T07:17:51.103Z,66.23
2019-03-03T07:18:59.186Z,72.59
2019-03-03T07:20:07.222Z,72.78
2019-03-03T07:21:15.300Z,69.93
2019-03-03T07:22:23.344Z,69.17
2019-03-03T07:23:31.403Z,68.32
2019-03-03T07:24:39.480Z,74.30
2019-03-03T07:25:47.512Z,71.92
2019-03-03T07:26:55.574Z,68.70
2019-03-03T07:28:03.647Z,67.08
2019-03-03T07:29:11.701Z,66.33
2019-03-03T07:30:19.777Z,65.09
2019-03-03T07:31:27.848Z,65.09
2019-03-03T07:32:35.990Z,68.04
2019-03-03T07:33:44.415Z,65.22
2019-03-03T07:34:52.355Z,73.48
2019-03-03T07:36:00.469Z,75.57
2019-03-03T07:37:08.546Z,77.56
2019-03-03T07:38:16.216Z,80.51
2019-03-03T07:39:24.248Z,82.88
2019-03-03T07:40:32.639Z,83.64
2019-03-03T07:41:40.758Z,86.01
2019-03-03T07:42:48.430Z,83.26
2019-03-03T07:43:56.731Z,83.73
2019-03-03T07:45:04.676Z,82.12
2019-03-03T07:46:12.608Z,79.94
2019-03-03T07:47:20.969Z,85.44
2019-03-03T07:48:29.294Z,84.72
2019-03-03T07:49:37.049Z,86.82
2019-03-03T07:50:44.995Z,88.62
2019-03-03T07:51:53.347Z,88.62
2019-03-03T07:53:01.225Z,88.05
2019-03-03T07:54:09.130Z,90.14
2019-03-03T07:55:17.108Z,90.14
2019-03-03T07:56:25.159Z,87.86
2019-03-03T07:57:33.215Z,87.95
2019-03-03T07:58:41.283Z,92.42
2019-03-03T07:59:49.348Z,88.62
2019-03-03T08:00:57.383Z,90.05
2019-03-03T08:02:05.466Z,88.81
2019-03-03T08:03:13.529Z,88.53
2019-03-03T08:04:21.600Z,88.05
2019-03-03T08:05:29.648Z,89.38
2019-03-03T08:06:37.694Z,99.83
2019-03-03T08:07:45.776Z,96.79
2019-03-03T08:08:53.841Z,95.46
2019-03-03T08:10:01.910Z,99.99
2019-03-03T08:11:09.948Z,98.79
2019-03-03T08:12:18.001Z,94.93
2019-03-03T08:13:26.069Z,95.03
2019-03-03T08:14:34.132Z,95.60
2019-03-03T08:15:42.202Z,96.65
2019-03-03T08:16:50.266Z,99.99
2019-03-03T08:17:58.324Z,98.36
2019-03-03T08:19:06.427Z,95.51
2019-03-03T08:20:14.915Z,97.88
2019-03-03T08:21:23.053Z,99.99
2019-03-03T08:22:30.575Z,99.99
2019-03-03T08:23:39.202Z,99.99
2019-03-03T08:24:47.323Z,99.99
2019-03-03T08:25:55.305Z,99.99
2019-03-03T08:27:03.136Z,99.99
2019-03-03T08:28:11.392Z,99.99
2019-03-03T08:29:19.539Z,99.99
2019-03-03T08:30:27.505Z,99.99
2019-03-03T08:31:35.063Z,99.99
2019-03-03T08:32:43.157Z,99.99
2019-03-03T08:33:51.182Z,99.99
2019-03-03T08:34:59.246Z,99.99
2019-03-03T08:36:07.297Z,99.99
2019-03-03T08:37:16.204Z,99.99
2019-03-03T08:38:23.451Z,99.99
2019-03-03T08:39:31.673Z,99.99
2019-03-03T08:40:39.676Z,99.99
2019-03-03T08:41:48.213Z,99.99
2019-03-03T08:42:56.072Z,99.99
2019-03-03T08:44:04.444Z,99.99
2019-03-03T08:45:12.483Z,99.99
2019-03-03T08:46:21.896Z,99.99
2019-03-03T08:47:30.657Z,99.99
2019-03-03T08:48:40.769Z,99.99
2019-03-03T08:49:46.122Z,99.99
2019-03-03T08:50:54.251Z,99.99
2019-03-03T08:52:02.188Z,99.99
2019-03-03T08:53:10.922Z,99.99
2019-03-03T08:54:20.859Z,99.99
2019-03-03T08:55:26.388Z,99.99
2019-03-03T08:56:34.449Z,99.99
2019-03-03T08:57:42.515Z,99.99
2019-03-03T08:58:50.578Z,99.99
2019-03-03T08:59:59.223Z,99.99
2019-03-03T09:01:09.988Z,99.99
2019-03-03T09:02:15.070Z,99.99
2019-03-03T09:03:23.154Z,99.99
2019-03-03T09:04:33.513Z,99.99
2019-03-03T09:05:41.868Z,99.99
2019-03-03T09:06:49.626Z,99.99
2019-03-03T09:07:58.009Z,99.99
2019-03-03T09:09:06.428Z,99.99
2019-03-03T09:10:13.834Z,99.99
2019-03-03T09:11:21.958Z,99.99
2019-03-03T09:12:29.940Z,99.99
2019-03-03T09:13:38.222Z,99.99
2019-03-03T09:14:46.107Z,99.99
2019-03-03T09:15:55.328Z,99.99
2019-03-03T09:17:02.239Z,99.99
2019-03-03T09:18:10.514Z,99.99
2019-03-03T09:19:18.477Z,99.99
2019-03-03T09:20:26.376Z,99.99
2019-03-03T09:21:34.449Z,99.99
2019-03-03T09:22:42.508Z,99.99
2019-03-03T09:23:50.557Z,99.99
2019-03-03T09:24:59.272Z,99.99
2019-03-03T09:26:06.699Z,99.99
2019-03-03T09:27:14.919Z,99.99
2019-03-03T09:28:23.311Z,99.99
2019-03-03T09:29:31.010Z,99.99
2019-03-03T09:30:39.405Z,99.99
2019-03-03T09:31:47.303Z,99.99
2019-03-03T09:32:55.710Z,99.99
2019-03-03T09:34:04.999Z,99.99
2019-03-03T09:35:11.696Z,99.99
2019-03-03T09:36:19.787Z,99.99
2019-03-03T09:37:27.960Z,99.99
2019-03-03T09:38:37.057Z,99.99
2019-03-03T09:39:46.365Z,99.99
2019-03-03T09:40:53.950Z,99.99
2019-03-03T09:42:02.000Z,99.99
2019-03-03T09:44:27.693Z,99.99
2019-03-03T09:45:35.284Z,99.99
2019-03-03T09:46:43.332Z,99.99
2019-03-03T09:47:55.689Z,99.99
2019-03-03T09:48:59.445Z,99.99
2019-03-03T09:50:09.564Z,99.99
2019-03-03T09:51:15.589Z,99.99
2019-03-03T09:52:23.648Z,99.99
2019-03-03T09:53:31.713Z,99.99
2019-03-03T09:54:39.778Z,99.99
2019-03-03T09:55:47.826Z,99.99
2019-03-03T09:56:55.896Z,99.99
2019-03-03T09:58:03.949Z,99.99
2019-03-03T09:59:12.028Z,99.99
2019-03-03T10:00:20.295Z,99.99
2019-03-03T10:01:28.131Z,99.99
2019-03-03T10:02:36.210Z,99.99
2019-03-03T10:03:44.271Z,99.99
2019-03-03T10:04:52.339Z,99.99
2019-03-03T10:07:13.652Z,99.99
2019-03-03T10:08:20.767Z,99.99
2019-03-03T10:09:28.833Z,99.99
2019-03-03T10:10:36.907Z,99.99
2019-03-03T10:11:44.958Z,99.99
2019-03-03T10:12:53.024Z,99.99
2019-03-03T10:14:01.089Z,99.99
2019-03-03T10:15:09.165Z,99.99
2019-03-03T10:16:17.201Z,99.99
2019-03-03T10:17:25.288Z,99.99
2019-03-03T10:18:33.335Z,99.99
2019-03-03T10:19:41.398Z,99.99
2019-03-03T10:20:49.471Z,99.99
2019-03-03T10:21:57.556Z,99.99
2019-03-03T10:23:05.600Z,99.99
2019-03-03T10:24:13.651Z,99.99
2019-03-03T10:25:21.734Z,99.99
2019-03-03T10:26:29.794Z,99.99
2019-03-03T10:27:37.831Z,99.99
2019-03-03T10:28:45.925Z,99.99
2019-03-03T10:29:54.025Z,99.99
2019-03-03T10:31:02.054Z,99.99
2019-03-03T10:32:10.127Z,99.99
2019-03-03T10:33:18.156Z,99.99
2019-03-03T10:34:26.256Z,99.99
2019-03-03T10:35:34.320Z,99.99
2019-03-03T10:36:42.358Z,99.99
2019-03-03T10:37:50.429Z,99.99
2019-03-03T10:38:58.486Z,99.99
2019-03-03T10:40:06.558Z,99.99
2019-03-03T10:41:14.619Z,99.99
2019-03-03T10:42:22.683Z,99.99
2019-03-03T10:43:30.764Z,99.99
2019-03-03T10:44:38.804Z,99.99
2019-03-03T10:45:46.895Z,99.99
2019-03-03T10:46:54.929Z,99.99
2019-03-03T10:48:03.010Z,99.99
2019-03-03T10:49:11.065Z,99.99
2019-03-03T10:50:19.144Z,99.99
2019-03-03T10:51:27.184Z,99.99
2019-03-03T10:52:35.253Z,99.99
2019-03-03T10:53:43.315Z,99.99
2019-03-03T10:54:51.396Z,99.99
2019-03-03T10:55:59.439Z,99.99
2019-03-03T10:57:07.507Z,99.99
2019-03-03T10:58:15.580Z,99.99
2019-03-03T10:59:23.646Z,99.99
2019-03-03T11:00:31.701Z,99.99
2019-03-03T11:01:39.770Z,99.99
2019-03-03T11:02:47.808Z,99.99
2019-03-03T11:03:55.906Z,99.99
2019-03-03T11:05:03.988Z,99.99
2019-03-03T11:06:12.030Z,99.99
2019-03-03T11:07:20.091Z,99.99
2019-03-03T11:08:28.148Z,99.99
2019-03-03T11:09:36.219Z,99.99
2019-03-03T11:10:44.296Z,99.99
2019-03-03T11:11:52.349Z,99.99
2019-03-03T11:13:00.430Z,99.99
2019-03-03T11:14:08.535Z,99.99
2019-03-03T11:15:18.555Z,99.99
2019-03-03T11:16:24.624Z,99.99
2019-03-03T11:17:32.692Z,99.99
2019-03-03T11:18:40.753Z,99.99
2019-03-03T11:19:48.823Z,91.36
2019-03-03T11:20:56.879Z,99.99
2019-03-03T11:22:04.941Z,98.61
2019-03-03T11:23:13.010Z,98.13
2019-03-03T11:24:21.069Z,99.99
2019-03-03T11:25:29.144Z,99.99
2019-03-03T11:26:37.206Z,99.99
2019-03-03T11:27:45.305Z,99.99
2019-03-03T11:28:53.333Z,99.99
2019-03-03T11:30:01.440Z,99.99
2019-03-03T11:31:09.487Z,99.99
2019-03-03T11:32:17.517Z,99.99
2019-03-03T11:33:25.615Z,96.32
2019-03-03T11:34:33.664Z,99.99
2019-03-03T11:35:41.722Z,99.47
2019-03-03T11:36:49.812Z,99.47
2019-03-03T11:37:57.856Z,99.47
2019-03-03T11:39:05.939Z,99.99
2019-03-03T11:40:14.013Z,91.64
2019-03-03T11:41:22.060Z,98.85
2019-03-03T11:42:30.133Z,97.66
2019-03-03T11:43:38.174Z,99.99
2019-03-03T11:44:46.254Z,99.99
2019-03-03T11:45:54.311Z,90.16
2019-03-03T11:47:02.396Z,95.12
2019-03-03T11:48:10.459Z,94.36
2019-03-03T11:49:18.529Z,95.79
2019-03-03T11:50:26.577Z,99.99
2019-03-03T11:51:34.652Z,94.65
2019-03-03T11:52:42.728Z,90.06
2019-03-03T11:53:50.775Z,96.37
2019-03-03T11:55:00.783Z,91.97
2019-03-03T11:56:06.953Z,93.41
2019-03-03T11:57:14.972Z,94.55
2019-03-03T11:58:24.046Z,93.98
2019-03-03T11:59:32.115Z,92.26
2019-03-03T12:00:40.183Z,87.48
2019-03-03T12:01:48.237Z,89.30
2019-03-03T12:02:56.313Z,86.34
2019-03-03T12:05:19.119Z,89.06
2019-03-03T12:07:44.504Z,92.59
2019-03-03T12:08:48.448Z,90.68
2019-03-03T12:09:56.455Z,93.65
2019-03-03T12:11:04.463Z,95.41
2019-03-03T12:12:12.535Z,83.75
2019-03-03T12:13:20.619Z,85.09
2019-03-03T12:14:28.689Z,86.33
2019-03-03T12:15:36.752Z,87.86
2019-03-03T12:16:44.812Z,86.38
2019-03-03T12:17:52.888Z,85.38
2019-03-03T12:19:01.734Z,84.13
2019-03-03T12:20:08.986Z,81.84
2019-03-03T12:21:17.052Z,81.16
2019-03-03T12:22:27.944Z,81.26
2019-03-03T12:23:36.034Z,81.74
2019-03-03T12:24:50.555Z,82.89
2019-03-03T12:25:54.574Z,82.89
2019-03-03T12:27:02.629Z,76.57
2019-03-03T12:28:10.700Z,75.81
2019-03-03T12:29:18.753Z,83.33
2019-03-03T12:30:28.553Z,83.42
2019-03-03T12:31:34.892Z,82.65
2019-03-03T12:32:42.973Z,87.15
2019-03-03T12:33:51.024Z,82.46
2019-03-03T12:34:59.094Z,82.41
2019-03-03T12:36:07.145Z,82.31
2019-03-03T12:37:15.236Z,80.69
2019-03-03T12:38:23.300Z,80.30
2019-03-03T12:39:31.358Z,79.44
2019-03-03T12:40:39.432Z,83.51
2019-03-03T12:41:47.485Z,82.03
2019-03-03T12:42:55.554Z,80.50
2019-03-03T12:44:03.647Z,78.58
2019-03-03T12:45:11.683Z,81.60
2019-03-03T12:46:19.746Z,83.90
2019-03-03T12:47:27.814Z,83.42
2019-03-03T12:48:35.902Z,83.13
2019-03-03T12:49:43.956Z,80.93
2019-03-03T12:50:52.028Z,79.22
2019-03-03T12:52:00.111Z,82.84
2019-03-03T12:53:08.133Z,85.33
2019-03-03T12:54:16.216Z,79.12
2019-03-03T12:55:24.279Z,79.50
2019-03-03T12:56:32.350Z,79.60
2019-03-03T12:57:40.458Z,80.93
2019-03-03T12:58:48.481Z,77.97
2019-03-03T12:59:56.632Z,83.42
2019-03-03T13:01:05.136Z,80.84
2019-03-03T13:02:12.807Z,82.94
2019-03-03T13:03:20.750Z,79.50
2019-03-03T13:04:28.817Z,81.22
2019-03-03T13:05:36.891Z,78.11
2019-03-03T13:06:44.939Z,76.39
2019-03-03T13:07:53.047Z,73.71
2019-03-03T13:09:01.082Z,75.62
2019-03-03T13:10:09.138Z,80.59
2019-03-03T13:11:17.301Z,78.78
2019-03-03T13:12:25.279Z,78.68
2019-03-03T13:13:33.356Z,75.52
2019-03-03T13:14:41.878Z,78.68
2019-03-03T13:15:49.471Z,76.77
2019-03-03T13:16:57.511Z,76.96
2019-03-03T13:18:05.616Z,71.13
2019-03-03T13:19:13.678Z,72.18
2019-03-03T13:20:21.740Z,73.96
2019-03-03T13:21:29.817Z,77.40
2019-03-03T13:22:37.852Z,76.25
2019-03-03T13:23:45.937Z,77.17
2019-03-03T13:24:54.012Z,79.85
2019-03-03T13:26:02.061Z,78.60
2019-03-03T13:27:10.147Z,81.95
2019-03-03T13:28:18.202Z,78.22
2019-03-03T13:29:26.274Z,78.99
2019-03-03T13:30:34.339Z,77.65
2019-03-03T13:31:42.407Z,82.32
2019-03-03T13:32:50.467Z,76.60
2019-03-03T13:33:58.525Z,77.94
2019-03-03T13:35:06.587Z,78.22
2019-03-03T13:36:14.680Z,79.46
2019-03-03T13:37:22.731Z,78.99
2019-03-03T13:38:30.804Z,78.70
2019-03-03T13:39:38.881Z,77.74
2019-03-03T13:40:46.928Z,77.08
2019-03-03T13:41:55.003Z,79.71
2019-03-03T13:43:03.077Z,82.86
2019-03-03T13:44:11.123Z,83.14
2019-03-03T13:45:19.184Z,83.00
2019-03-03T13:46:27.255Z,79.85
2019-03-03T13:47:35.323Z,81.09
2019-03-03T13:48:43.423Z,80.51
2019-03-03T13:49:51.440Z,80.41
2019-03-03T13:50:59.521Z,76.98
2019-03-03T13:52:07.560Z,77.55
2019-03-03T13:53:15.647Z,79.94
2019-03-03T13:54:23.716Z,80.32
2019-03-03T13:55:31.778Z,78.89
2019-03-03T13:56:39.850Z,76.03
2019-03-03T13:57:47.911Z,76.56
2019-03-03T13:58:55.995Z,77.61
2019-03-03T14:00:04.055Z,80.85
2019-03-03T14:01:12.116Z,82.67
2019-03-03T14:02:20.184Z,82.04
2019-03-03T14:03:28.231Z,82.48
2019-03-03T14:04:36.309Z,81.09
2019-03-03T14:05:44.364Z,79.94
2019-03-03T14:06:52.448Z,77.94
2019-03-03T14:08:00.495Z,78.99
2019-03-03T14:09:08.569Z,80.80
2019-03-03T14:10:16.639Z,80.61
2019-03-03T14:11:24.699Z,80.99
2019-03-03T14:12:32.745Z,80.80
2019-03-03T14:13:40.829Z,78.70
2019-03-03T14:14:48.885Z,78.89
2019-03-03T14:15:56.973Z,80.80
2019-03-03T14:17:05.035Z,82.90
2019-03-03T14:18:13.095Z,79.94
2019-03-03T14:19:21.164Z,78.51
2019-03-03T14:20:29.244Z,80.90
2019-03-03T14:21:37.292Z,82.14
2019-03-03T14:22:45.363Z,83.09
2019-03-03T14:23:53.426Z,82.52
2019-03-03T14:25:01.484Z,81.95
2019-03-03T14:26:09.583Z,82.81
2019-03-03T14:27:17.593Z,81.76
2019-03-03T14:28:25.681Z,78.41
2019-03-03T14:29:33.750Z,80.51
2019-03-03T14:30:41.819Z,82.32
2019-03-03T14:31:49.885Z,82.71
2019-03-03T14:32:57.933Z,81.95
2019-03-03T14:34:06.032Z,82.23
2019-03-03T14:35:14.079Z,79.08
2019-03-03T14:36:22.152Z,79.17
2019-03-03T14:37:30.228Z,80.80
2019-03-03T14:38:38.268Z,77.94
2019-03-03T14:39:46.366Z,77.55
2019-03-03T14:40:54.409Z,77.65